createdAt,value
2023-03-17T00:02:08.377Z,6.17
2023-03-17T00:06:25.927Z,3.90
2023-03-17T00:10:29.666Z,8.83
2023-03-17T00:14:36.361Z,6.13
2023-03-17T00:18:39.975Z,8.97
2023-03-17T00:22:45.694Z,4.80
2023-03-17T00:26:49.142Z,7.17
2023-03-17T00:30:56.458Z,6.60
2023-03-17T00:34:59.986Z,4.83
2023-03-17T00:39:05.391Z,5.00
2023-03-17T00:43:09.838Z,3.77
2023-03-17T00:47:14.015Z,4.03
2023-03-17T00:51:18.454Z,7.97
2023-03-17T00:55:25.382Z,3.97
2023-03-17T00:59:37.414Z,5.50
2023-03-17T01:03:41.710Z,5.43
2023-03-17T01:07:52.995Z,6.20
2023-03-17T01:11:58.618Z,9.60
2023-03-17T01:16:03.200Z,7.80
2023-03-17T01:20:13.066Z,6.50
2023-03-17T01:24:17.273Z,3.13
2023-03-17T01:28:23.445Z,5.63
2023-03-17T01:32:27.501Z,6.73
2023-03-17T01:36:31.420Z,7.23
2023-03-17T01:40:37.840Z,4.93
2023-03-17T01:45:02.409Z,7.63
2023-03-17T01:49:15.687Z,3.53
2023-03-17T01:53:21.579Z,6.63
2023-03-17T01:57:30.166Z,3.47
2023-03-17T02:06:02.769Z,2.40
2023-03-17T02:10:08.948Z,3.93
2023-03-17T02:14:12.730Z,5.87
2023-03-17T02:18:19.429Z,5.27
2023-03-17T02:22:25.848Z,4.63
2023-03-17T02:26:31.492Z,4.40
2023-03-17T02:30:37.169Z,4.57
2023-03-17T02:34:41.174Z,6.10
2023-03-17T02:38:46.238Z,3.27
2023-03-17T02:42:49.891Z,7.57
2023-03-17T02:46:53.670Z,4.27
2023-03-17T02:50:57.987Z,3.17
2023-03-17T02:55:03.921Z,6.47
2023-03-17T02:59:08.843Z,3.87
2023-03-17T03:03:13.270Z,5.57
2023-03-17T03:07:17.241Z,3.40
2023-03-17T03:11:23.564Z,4.60
2023-03-17T03:15:27.459Z,5.20
2023-03-17T03:19:31.664Z,2.87
2023-03-17T03:23:36.045Z,4.80
2023-03-17T03:27:41.622Z,5.97
2023-03-17T03:31:45.098Z,4.07
2023-03-17T03:35:49.756Z,6.03
2023-03-17T03:39:53.134Z,5.07
2023-03-17T03:43:58.199Z,3.73
2023-03-17T03:48:01.793Z,3.47
2023-03-17T03:52:06.071Z,4.60
2023-03-17T03:56:09.971Z,3.00
2023-03-17T04:00:18.765Z,4.67
2023-03-17T04:04:23.146Z,5.23
2023-03-17T04:08:27.474Z,5.37
2023-03-17T04:12:31.763Z,6.67
2023-03-17T04:16:37.764Z,5.47
2023-03-17T04:20:42.552Z,5.00
2023-03-17T04:24:46.852Z,9.20
2023-03-17T04:28:52.224Z,11.30
2023-03-17T04:32:58.184Z,3.57
2023-03-17T04:37:02.689Z,4.47
2023-03-17T04:41:07.563Z,5.50
2023-03-17T04:45:12.528Z,3.80
2023-03-17T04:49:20.133Z,4.33
2023-03-17T04:53:23.908Z,3.57
2023-03-17T04:57:28.442Z,5.93
2023-03-17T05:01:32.375Z,9.00
2023-03-17T05:05:37.839Z,5.17
2023-03-17T05:09:42.056Z,4.13
2023-03-17T05:13:48.300Z,5.50
2023-03-17T05:17:52.486Z,5.03
2023-03-17T05:21:58.039Z,5.57
2023-03-17T05:26:01.983Z,6.27
2023-03-17T05:30:06.952Z,4.27
2023-03-17T05:34:10.255Z,8.50
2023-03-17T05:38:16.499Z,4.70
2023-03-17T05:42:19.873Z,4.73
2023-03-17T05:46:23.677Z,4.57
2023-03-17T05:50:27.927Z,3.40
2023-03-17T05:54:32.786Z,3.50
2023-03-17T05:58:36.174Z,4.20
2023-03-17T06:02:40.631Z,5.80
2023-03-17T06:06:44.256Z,4.40
2023-03-17T06:10:49.529Z,6.90
2023-03-17T06:14:53.560Z,6.53
2023-03-17T06:18:56.980Z,5.50
2023-03-17T06:23:05.061Z,4.93
2023-03-17T06:27:11.633Z,8.23
2023-03-17T06:31:15.180Z,16.43
2023-03-17T06:35:19.235Z,10.03
2023-03-17T06:39:22.803Z,8.93
2023-03-17T06:43:27.609Z,5.77
2023-03-17T06:47:31.346Z,7.17
2023-03-17T06:51:37.329Z,7.63
2023-03-17T06:55:42.199Z,5.33
2023-03-17T06:59:46.960Z,8.27
2023-03-17T07:03:50.379Z,5.23
2023-03-17T07:07:53.802Z,10.67
2023-03-17T07:11:58.856Z,7.07
2023-03-17T07:16:03.981Z,8.30
2023-03-17T07:20:08.253Z,6.47
2023-03-17T07:24:12.614Z,7.30
2023-03-17T07:28:16.359Z,8.00
2023-03-17T07:32:21.329Z,4.07
2023-03-17T07:36:25.119Z,3.93
2023-03-17T07:40:28.487Z,5.27
2023-03-17T07:44:32.645Z,5.10
2023-03-17T07:48:41.050Z,8.27
2023-03-17T07:52:44.506Z,4.83
2023-03-17T07:56:47.977Z,6.83
2023-03-17T08:00:51.930Z,5.60
2023-03-17T08:04:57.079Z,5.00
2023-03-17T08:09:00.580Z,6.90
2023-03-17T08:13:03.960Z,4.50
2023-03-17T08:17:07.860Z,4.73
2023-03-17T08:21:15.780Z,6.37
2023-03-17T08:25:19.327Z,10.20
2023-03-17T08:29:22.643Z,8.47
2023-03-17T08:33:26.211Z,6.03
2023-03-17T08:37:30.874Z,7.00
2023-03-17T08:41:34.205Z,9.27
2023-03-17T08:45:37.486Z,8.47
2023-03-17T08:49:41.246Z,10.20
2023-03-17T08:53:46.580Z,6.50
2023-03-17T08:57:51.758Z,9.60
2023-03-17T09:01:55.953Z,11.80
2023-03-17T09:05:59.884Z,5.83
2023-03-17T09:10:05.847Z,11.27
2023-03-17T09:14:09.599Z,7.00
2023-03-17T09:18:14.702Z,5.47
2023-03-17T09:22:19.926Z,6.87
2023-03-17T09:26:26.540Z,6.17
2023-03-17T09:30:30.290Z,7.13
2023-03-17T09:34:35.817Z,9.00
2023-03-17T09:38:40.065Z,5.60
2023-03-17T09:42:58.154Z,6.90
2023-03-17T09:47:10.706Z,5.30
2023-03-17T09:51:18.208Z,5.20
2023-03-17T09:55:30.935Z,6.43
2023-03-17T09:59:38.292Z,7.07
2023-03-17T10:03:42.982Z,6.70
2023-03-17T10:07:52.474Z,5.37
2023-03-17T10:12:05.607Z,6.23
2023-03-17T10:16:14.454Z,5.47
2023-03-17T10:20:23.984Z,5.63
2023-03-17T10:24:29.091Z,6.80
2023-03-17T10:28:39.110Z,5.33
2023-03-17T10:32:44.653Z,5.40
2023-03-17T10:36:51.108Z,5.50
2023-03-17T10:40:58.279Z,5.00
2023-03-17T10:45:09.065Z,6.70
2023-03-17T10:49:20.118Z,6.30
2023-03-17T10:53:28.446Z,8.70
2023-03-17T10:57:31.954Z,5.47
2023-03-17T11:01:39.628Z,9.73
2023-03-17T11:05:56.845Z,5.33
2023-03-17T11:10:05.276Z,4.83
2023-03-17T11:14:14.452Z,4.90
2023-03-17T11:18:22.714Z,8.30
2023-03-17T11:22:38.017Z,5.80
2023-03-17T11:26:58.454Z,5.27
2023-03-17T11:31:09.539Z,4.50
2023-03-17T11:35:36.051Z,8.50
2023-03-17T11:39:51.328Z,9.23
2023-03-17T11:44:09.352Z,4.33
2023-03-17T11:48:30.180Z,5.20
2023-03-17T11:52:40.419Z,4.83
2023-03-17T11:56:52.265Z,4.10
2023-03-17T12:00:58.287Z,3.53
2023-03-17T12:05:06.291Z,3.97
2023-03-17T12:09:24.423Z,3.87
2023-03-17T12:13:33.540Z,6.00
2023-03-17T12:17:40.926Z,5.10
2023-03-17T12:21:50.562Z,6.63
2023-03-17T12:26:01.351Z,5.37
2023-03-17T12:30:16.118Z,5.60
2023-03-17T12:34:27.079Z,6.20
2023-03-17T12:38:37.377Z,6.17
2023-03-17T12:42:52.616Z,6.97
2023-03-17T12:47:21.477Z,6.63
2023-03-17T12:51:49.016Z,6.97
2023-03-17T12:55:55.923Z,9.23
2023-03-17T13:00:06.484Z,6.73
2023-03-17T13:04:22.123Z,8.27
2023-03-17T13:08:31.044Z,6.63
2023-03-17T13:13:05.885Z,6.97
2023-03-17T13:17:34.237Z,7.27
2023-03-17T13:21:39.465Z,8.23
2023-03-17T13:25:53.699Z,6.50
2023-03-17T13:29:57.323Z,6.40
2023-03-17T13:34:14.602Z,7.03
2023-03-17T13:39:17.660Z,6.13
2023-03-17T13:43:42.348Z,7.40
2023-03-17T13:47:47.370Z,6.40
2023-03-17T13:52:00.386Z,6.47
2023-03-17T13:56:16.744Z,6.53
2023-03-17T14:00:27.089Z,7.30
2023-03-17T14:04:35.762Z,5.90
2023-03-17T14:08:43.929Z,6.03
2023-03-17T14:12:56.221Z,5.90
2023-03-17T14:17:06.289Z,5.70
2023-03-17T14:21:22.176Z,4.73
2023-03-17T14:25:27.645Z,5.73
2023-03-17T14:29:33.594Z,6.53
2023-03-17T14:33:42.006Z,5.07
2023-03-17T14:37:46.481Z,7.40
2023-03-17T14:41:59.448Z,8.60
2023-03-17T14:46:04.309Z,7.17
2023-03-17T14:50:17.380Z,9.33
2023-03-17T14:54:23.565Z,7.40
2023-03-17T14:58:31.409Z,7.13
2023-03-17T15:02:37.839Z,6.60
2023-03-17T15:06:51.642Z,6.73
2023-03-17T15:10:59.261Z,7.53
2023-03-17T15:15:06.356Z,8.57
2023-03-17T15:19:20.627Z,11.07
2023-03-17T15:23:29.999Z,7.33
2023-03-17T15:27:33.612Z,6.30
2023-03-17T15:31:37.024Z,6.30
2023-03-17T15:35:40.563Z,5.93
2023-03-17T15:39:45.694Z,6.50
2023-03-17T15:43:49.187Z,7.20
2023-03-17T15:47:53.405Z,6.60
2023-03-17T15:51:56.681Z,6.40
2023-03-17T15:56:01.786Z,8.37
2023-03-17T16:00:05.718Z,6.80
2023-03-17T16:04:10.847Z,8.33
2023-03-17T16:08:15.796Z,7.40
2023-03-17T16:12:21.361Z,8.57
2023-03-17T16:16:32.110Z,8.77
2023-03-17T16:20:40.932Z,14.87
2023-03-17T16:24:45.113Z,7.93
2023-03-17T16:28:50.857Z,12.70
2023-03-17T16:32:55.284Z,6.60
2023-03-17T16:36:59.425Z,10.73
2023-03-17T16:41:10.517Z,7.23
2023-03-17T16:45:23.486Z,7.80
2023-03-17T16:49:28.550Z,6.63
2023-03-17T16:53:35.718Z,5.37
2023-03-17T16:57:42.991Z,10.37
2023-03-17T17:01:48.772Z,10.33
2023-03-17T17:05:54.134Z,7.87
2023-03-17T17:09:59.529Z,11.17
2023-03-17T17:14:03.912Z,6.53
2023-03-17T17:18:16.905Z,6.97
2023-03-17T17:22:21.309Z,10.77
2023-03-17T17:26:25.749Z,11.70
2023-03-17T17:30:33.075Z,7.47
2023-03-17T17:34:39.048Z,8.13
2023-03-17T17:38:44.013Z,10.60
2023-03-17T17:42:48.974Z,7.80
2023-03-17T17:46:53.765Z,10.73
2023-03-17T17:51:00.201Z,12.47
2023-03-17T17:55:07.969Z,10.30
2023-03-17T17:59:14.634Z,7.27
2023-03-17T18:03:22.845Z,7.50
2023-03-17T18:07:30.332Z,6.73
2023-03-17T18:11:35.547Z,6.73
2023-03-17T18:15:40.579Z,6.73
2023-03-17T18:19:45.813Z,7.53
2023-03-17T18:23:55.192Z,6.80
2023-03-17T18:28:03.583Z,8.20
2023-03-17T18:32:10.346Z,6.47
2023-03-17T18:36:16.536Z,9.57
2023-03-17T18:40:22.112Z,7.70
2023-03-17T18:44:27.948Z,12.50
2023-03-17T18:48:34.713Z,6.87
2023-03-17T18:52:44.321Z,6.90
2023-03-17T18:56:53.540Z,10.40
2023-03-17T19:01:02.323Z,16.03
2023-03-17T19:05:08.508Z,16.90
2023-03-17T19:09:19.269Z,13.17
2023-03-17T19:13:28.504Z,12.83
2023-03-17T19:17:33.153Z,12.63
2023-03-17T19:21:38.009Z,10.87
2023-03-17T19:25:43.406Z,10.80
2023-03-17T19:29:52.350Z,13.63
2023-03-17T19:33:57.732Z,9.90
2023-03-17T19:38:04.831Z,6.87
2023-03-17T19:42:12.667Z,12.67
2023-03-17T19:46:19.935Z,15.63
2023-03-17T19:50:27.093Z,10.90
2023-03-17T19:54:32.281Z,11.80
2023-03-17T19:58:41.263Z,12.13
2023-03-17T20:02:49.078Z,12.37
2023-03-17T20:06:56.209Z,18.03
2023-03-17T20:11:01.990Z,10.87
2023-03-17T20:15:08.111Z,7.97
2023-03-17T20:19:13.699Z,10.80
2023-03-17T20:23:18.814Z,13.20
2023-03-17T20:27:24.135Z,9.03
2023-03-17T20:31:30.454Z,9.37
2023-03-17T20:35:38.444Z,8.93
2023-03-17T20:39:45.506Z,11.93
2023-03-17T20:43:52.192Z,9.87
2023-03-17T20:47:58.064Z,7.40
2023-03-17T20:52:06.543Z,11.40
2023-03-17T20:56:15.972Z,9.83
2023-03-17T21:00:23.040Z,8.97
2023-03-17T21:04:30.537Z,12.70
2023-03-17T21:08:36.942Z,13.13
2023-03-17T21:12:46.622Z,12.47
2023-03-17T21:16:51.188Z,14.70
2023-03-17T21:20:56.921Z,17.13
2023-03-17T21:25:02.855Z,12.27
2023-03-17T21:29:08.692Z,13.83
2023-03-17T21:33:13.801Z,14.20
2023-03-17T21:37:22.140Z,15.87
2023-03-17T21:41:33.441Z,11.70
2023-03-17T21:45:37.593Z,15.00
2023-03-17T21:49:41.416Z,13.03
2023-03-17T21:53:46.882Z,18.23
2023-03-17T21:57:52.998Z,20.60
2023-03-17T22:01:56.407Z,20.40
2023-03-17T22:06:00.344Z,15.57
2023-03-17T22:10:06.327Z,15.87
2023-03-17T22:14:19.910Z,22.17
2023-03-17T22:18:23.495Z,13.37
2023-03-17T22:22:26.841Z,13.03
2023-03-17T22:26:30.527Z,17.80
2023-03-17T22:30:38.516Z,14.53
2023-03-17T22:34:42.704Z,13.07
2023-03-17T22:38:46.077Z,10.73
2023-03-17T22:42:49.442Z,12.70
2023-03-17T22:46:54.221Z,12.93
2023-03-17T22:50:57.568Z,8.83
2023-03-17T22:55:01.017Z,11.53
2023-03-17T22:59:04.467Z,11.13
2023-03-17T23:03:09.117Z,10.83
2023-03-17T23:07:12.605Z,8.70
2023-03-17T23:11:18.421Z,12.77
2023-03-17T23:15:22.573Z,13.47
2023-03-17T23:19:27.600Z,10.93
2023-03-17T23:23:31.305Z,10.90
2023-03-17T23:27:34.629Z,11.63
2023-03-17T23:31:39.687Z,12.57
2023-03-17T23:35:46.229Z,8.23
2023-03-17T23:39:49.730Z,10.80
2023-03-17T23:43:53.137Z,13.00
2023-03-17T23:47:57.595Z,10.03
2023-03-17T23:52:02.272Z,14.20
2023-03-17T23:56:06.073Z,10.90
